Rechercher aéroport 
image banner adimage banner ad
image banner ad

SVKV - Planta Lama

Situé à Lago De Maracaibo, Venezuela

ICAO - SVKV, IATA -

Données fournies par Airmate  

Information générale

Coordonnées: N9°56'1" W71°38'36"
Élévation : 14 feet MSL.
 
Voir autres Aéroports à Zulia

Données opérationnelles

Accessible au public
Heure actuelle UTC:
Heure actuelle locale:
Météo à : SVMC - Maracaibo / La Chinita Intl ( 70 km )
METAR: SVMC 230402Z AUTO 34005KT NCD 28/25 Q1010
TAF: TAF SVMC 221600Z 2218/2318 18006KT 9999 FEW013 TX35/2219Z TN24/2208Z BECMG 2218/2222 19007KT 9999 SCT016
Voir NOTAMs / SUP AIP / TFR affectant cet aéroport [VIEW]
Fréquences de communication: [VIEW]

Pistes:

Coordonnées de l'aéroport

Adresse: Lago De Maracaibo Venezuela

Vue satellite de SVKV